createdAt,value
2019-05-18T00:01:46.203Z,99.90
2019-05-18T00:04:16.987Z,99.90
2019-05-18T00:06:48.199Z,99.90
2019-05-18T00:09:17.408Z,99.90
2019-05-18T00:11:47.468Z,99.90
2019-05-18T00:14:19.775Z,99.90
2019-05-18T00:16:50.523Z,99.90
2019-05-18T00:19:20.346Z,99.90
2019-05-18T00:22:01.519Z,99.90
2019-05-18T00:24:30.981Z,99.90
2019-05-18T00:27:02.171Z,99.90
2019-05-18T00:29:32.718Z,99.90
2019-05-18T00:32:02.221Z,99.90
2019-05-18T00:34:33.583Z,99.90
2019-05-18T00:37:03.930Z,99.90
2019-05-18T00:39:33.179Z,99.90
2019-05-18T00:42:02.514Z,99.90
2019-05-18T00:44:32.236Z,99.90
2019-05-18T00:47:01.952Z,99.90
2019-05-18T00:49:33.107Z,99.90
2019-05-18T00:52:03.120Z,99.90
2019-05-18T00:54:37.988Z,99.90
2019-05-18T00:57:07.227Z,99.90
2019-05-18T00:59:38.170Z,99.90
2019-05-18T01:02:25.085Z,99.90
2019-05-18T01:04:54.386Z,99.90
2019-05-18T01:07:24.481Z,99.90
2019-05-18T01:09:54.492Z,99.90
2019-05-18T01:12:26.617Z,99.90
2019-05-18T01:15:03.378Z,99.90
2019-05-18T01:17:33.301Z,99.90
2019-05-18T01:20:11.791Z,99.90
2019-05-18T01:22:47.655Z,99.90
2019-05-18T01:25:18.852Z,99.90
2019-05-18T01:27:54.434Z,99.90
2019-05-18T01:30:27.443Z,99.90
2019-05-18T01:33:11.903Z,99.90
2019-05-18T01:35:45.123Z,99.90
2019-05-18T01:38:18.583Z,99.90
2019-05-18T01:40:53.262Z,99.90
2019-05-18T01:43:23.919Z,99.90
2019-05-18T01:49:03.916Z,99.90
2019-05-18T01:51:34.528Z,99.90
2019-05-18T01:54:04.663Z,99.90
2019-05-18T01:56:35.899Z,99.90
2019-05-18T01:59:06.055Z,99.90
2019-05-18T02:01:36.678Z,99.90
2019-05-18T02:04:08.722Z,99.90
2019-05-18T02:06:38.019Z,99.90
2019-05-18T02:09:09.788Z,99.90
2019-05-18T02:11:40.814Z,99.90
2019-05-18T02:14:10.322Z,99.90
2019-05-18T02:16:40.339Z,99.90
2019-05-18T02:19:09.489Z,99.90
2019-05-18T02:21:43.954Z,99.90
2019-05-18T02:24:13.190Z,99.90
2019-05-18T02:26:42.438Z,99.90
2019-05-18T02:29:11.650Z,99.90
2019-05-18T02:31:41.070Z,99.90
2019-05-18T02:34:10.555Z,99.90
2019-05-18T02:36:39.723Z,99.90
2019-05-18T02:39:10.718Z,99.90
2019-05-18T02:41:39.918Z,99.90
2019-05-18T02:44:09.282Z,99.90
2019-05-18T02:46:39.679Z,99.90
2019-05-18T02:49:10.037Z,99.90
2019-05-18T02:51:39.211Z,99.90
2019-05-18T02:54:08.643Z,99.90
2019-05-18T02:56:41.188Z,99.90
2019-05-18T02:59:10.583Z,99.90
2019-05-18T03:01:41.015Z,99.90
2019-05-18T03:04:10.229Z,99.90
2019-05-18T03:06:40.092Z,99.90
2019-05-18T03:09:09.263Z,99.90
2019-05-18T03:11:39.626Z,99.90
2019-05-18T03:14:08.779Z,99.90
2019-05-18T03:16:37.912Z,99.90
2019-05-18T03:19:08.972Z,99.90
2019-05-18T03:21:38.082Z,99.90
2019-05-18T03:24:07.210Z,99.90
2019-05-18T03:26:36.352Z,99.90
2019-05-18T03:29:06.915Z,99.90
2019-05-18T03:31:36.152Z,99.90
2019-05-18T03:34:05.344Z,99.90
2019-05-18T03:36:34.628Z,99.90
2019-05-18T03:39:05.292Z,99.90
2019-05-18T03:41:36.371Z,99.90
2019-05-18T03:44:05.510Z,99.90
2019-05-18T03:46:34.639Z,99.90
2019-05-18T03:52:00.304Z,99.90
2019-05-18T03:54:30.662Z,99.90
2019-05-18T03:56:59.755Z,99.90
2019-05-18T03:59:28.947Z,99.90
2019-05-18T04:01:58.074Z,99.90
2019-05-18T04:04:27.314Z,99.90
2019-05-18T04:06:56.461Z,99.90
2019-05-18T04:09:25.666Z,99.90
2019-05-18T04:11:54.906Z,99.90
2019-05-18T04:14:24.544Z,99.90
2019-05-18T04:16:57.548Z,99.90
2019-05-18T04:19:44.674Z,99.90
2019-05-18T04:21:57.665Z,99.90
2019-05-18T04:24:26.843Z,99.90
2019-05-18T04:26:56.001Z,99.90
2019-05-18T04:29:25.209Z,99.90
2019-05-18T04:31:54.387Z,99.90
2019-05-18T04:34:23.515Z,99.90
2019-05-18T04:36:52.767Z,99.90
2019-05-18T04:39:21.958Z,99.90
2019-05-18T04:41:51.205Z,99.90
2019-05-18T04:44:20.432Z,99.90
2019-05-18T04:46:49.660Z,99.90
2019-05-18T04:49:18.915Z,99.90
2019-05-18T04:51:48.151Z,99.90
2019-05-18T04:54:17.278Z,99.90
2019-05-18T04:56:46.470Z,99.90
2019-05-18T04:59:15.571Z,99.90
2019-05-18T05:01:44.715Z,99.90
2019-05-18T05:04:13.915Z,99.90
2019-05-18T05:06:43.071Z,99.90
2019-05-18T05:09:12.217Z,99.90
2019-05-18T05:11:41.365Z,99.90
2019-05-18T05:14:10.606Z,99.90
2019-05-18T05:16:39.777Z,99.90
2019-05-18T05:19:09.015Z,99.90
2019-05-18T05:21:38.219Z,99.90
2019-05-18T05:24:07.436Z,99.90
2019-05-18T05:26:39.301Z,99.90
2019-05-18T05:29:07.417Z,99.90
2019-05-18T05:31:36.458Z,99.90
2019-05-18T05:34:05.603Z,99.90
2019-05-18T05:36:34.795Z,99.90
2019-05-18T05:39:05.614Z,99.90
2019-05-18T05:41:34.834Z,99.90
2019-05-18T05:44:03.997Z,99.90
2019-05-18T05:46:33.131Z,99.90
2019-05-18T05:49:02.349Z,99.90
2019-05-18T05:51:31.503Z,99.90
2019-05-18T05:54:00.717Z,99.90
2019-05-18T05:56:29.823Z,99.90
2019-05-18T05:58:58.959Z,99.90
2019-05-18T06:01:28.088Z,99.90
2019-05-18T06:03:57.285Z,99.90
2019-05-18T06:06:26.431Z,99.90
2019-05-18T06:08:55.502Z,99.90
2019-05-18T06:11:24.707Z,99.90
2019-05-18T06:13:53.851Z,99.90
2019-05-18T06:16:22.958Z,99.90
2019-05-18T06:18:52.130Z,99.90
2019-05-18T06:21:21.302Z,99.90
2019-05-18T06:23:50.586Z,99.90
2019-05-18T06:26:19.719Z,99.90
2019-05-18T06:28:48.850Z,99.90
2019-05-18T06:31:18.626Z,99.90
2019-05-18T06:33:47.836Z,99.90
2019-05-18T06:36:16.960Z,99.90
2019-05-18T06:38:46.196Z,99.90
2019-05-18T06:41:15.330Z,99.90
2019-05-18T06:43:44.566Z,99.90
2019-05-18T06:46:13.755Z,99.90
2019-05-18T06:48:42.922Z,99.90
2019-05-18T06:51:12.494Z,99.90
2019-05-18T06:53:41.688Z,99.90
2019-05-18T06:56:12.254Z,99.90
2019-05-18T06:58:41.811Z,99.90
2019-05-18T07:01:11.030Z,99.90
2019-05-18T07:03:40.326Z,99.90
2019-05-18T07:06:09.826Z,99.90
2019-05-18T07:08:38.930Z,99.90
2019-05-18T07:11:08.065Z,99.90
2019-05-18T07:13:37.238Z,99.90
2019-05-18T07:16:06.449Z,99.90
2019-05-18T07:18:35.627Z,99.90
2019-05-18T07:21:04.717Z,99.90
2019-05-18T07:23:33.908Z,99.90
2019-05-18T07:26:03.059Z,99.90
2019-05-18T07:28:32.238Z,99.90
2019-05-18T07:31:01.365Z,99.90
2019-05-18T07:33:30.521Z,99.90
2019-05-18T07:35:59.621Z,99.90
2019-05-18T07:38:28.789Z,99.90
2019-05-18T07:40:57.958Z,99.90
2019-05-18T07:43:27.086Z,99.90
2019-05-18T07:45:56.691Z,99.90
2019-05-18T07:48:25.838Z,99.90
2019-05-18T07:50:55.055Z,99.90
2019-05-18T07:53:24.177Z,99.90
2019-05-18T07:55:53.353Z,99.90
2019-05-18T07:58:22.498Z,99.90
2019-05-18T08:00:51.736Z,99.90
2019-05-18T08:03:20.930Z,99.90
2019-05-18T08:05:50.203Z,99.90
2019-05-18T08:08:19.422Z,99.90
2019-05-18T08:10:48.600Z,99.90
2019-05-18T08:13:17.848Z,99.90
2019-05-18T08:15:47.077Z,99.90
2019-05-18T08:18:16.258Z,99.90
2019-05-18T08:20:45.497Z,99.90
2019-05-18T08:23:14.655Z,99.90
2019-05-18T08:25:43.779Z,99.90
2019-05-18T08:28:12.968Z,99.90
2019-05-18T08:30:42.096Z,99.90
2019-05-18T08:33:11.273Z,99.90
2019-05-18T08:35:40.410Z,99.90
2019-05-18T08:38:09.657Z,99.90
2019-05-18T08:40:39.280Z,99.90
2019-05-18T08:43:08.641Z,99.90
2019-05-18T08:45:37.855Z,99.30
2019-05-18T08:48:07.052Z,99.60
2019-05-18T08:50:36.185Z,98.00
2019-05-18T08:53:05.344Z,96.70
2019-05-18T08:55:34.489Z,96.50
2019-05-18T08:58:03.636Z,95.10
2019-05-18T09:00:32.803Z,95.00
2019-05-18T09:03:01.968Z,94.50
2019-05-18T09:05:31.728Z,93.70
2019-05-18T09:08:01.069Z,93.20
2019-05-18T09:10:30.253Z,92.00
2019-05-18T09:12:59.358Z,90.60
2019-05-18T09:17:01.007Z,88.50
2019-05-18T09:19:30.162Z,91.00
2019-05-18T09:21:59.282Z,88.90
2019-05-18T09:24:28.425Z,87.80
2019-05-18T09:26:57.613Z,87.10
2019-05-18T09:29:26.753Z,86.90
2019-05-18T09:31:58.018Z,85.40
2019-05-18T09:34:31.059Z,83.70
2019-05-18T09:37:03.337Z,84.10
2019-05-18T09:39:32.454Z,82.90
2019-05-18T09:42:04.408Z,81.50
2019-05-18T09:44:33.945Z,79.80
2019-05-18T09:47:06.291Z,80.60
2019-05-18T09:50:12.654Z,78.90
2019-05-18T09:52:45.319Z,79.90
2019-05-18T09:55:32.895Z,81.10
2019-05-18T09:58:08.291Z,82.30
2019-05-18T10:00:39.074Z,82.80
2019-05-18T10:03:08.508Z,83.40
2019-05-18T10:05:38.041Z,84.40
2019-05-18T10:08:09.355Z,85.10
2019-05-18T10:10:38.567Z,84.10
2019-05-18T10:13:08.172Z,83.60
2019-05-18T10:15:39.529Z,83.10
2019-05-18T10:18:08.771Z,81.60
2019-05-18T10:20:38.140Z,80.00
2019-05-18T10:23:13.034Z,81.90
2019-05-18T10:25:50.387Z,83.30
2019-05-18T10:28:24.306Z,84.70
2019-05-18T10:30:53.771Z,83.20
2019-05-18T10:33:22.883Z,82.90
2019-05-18T10:35:52.765Z,81.10
2019-05-18T10:38:22.011Z,80.50
2019-05-18T10:40:52.111Z,79.10
2019-05-18T10:43:21.246Z,79.50
2019-05-18T10:45:50.437Z,78.80
2019-05-18T10:48:25.596Z,78.60
2019-05-18T10:50:56.365Z,78.40
2019-05-18T10:53:36.883Z,78.40
2019-05-18T10:56:06.014Z,76.20
2019-05-18T10:58:47.127Z,76.00
2019-05-18T11:01:16.228Z,73.00
2019-05-18T11:03:45.349Z,73.20
2019-05-18T11:06:16.729Z,73.20
2019-05-18T11:08:45.891Z,72.20
2019-05-18T11:11:17.302Z,69.70
2019-05-18T11:13:46.475Z,69.30
2019-05-18T11:16:15.616Z,67.00
2019-05-18T11:18:44.686Z,67.10
2019-05-18T11:21:13.814Z,66.40
2019-05-18T11:23:44.979Z,65.50
2019-05-18T11:26:14.390Z,65.20
2019-05-18T11:28:43.611Z,64.00
2019-05-18T11:31:13.631Z,63.00
2019-05-18T11:33:43.713Z,61.80
2019-05-18T11:36:13.893Z,63.70
2019-05-18T11:38:43.058Z,62.60
2019-05-18T11:41:12.232Z,62.50
2019-05-18T11:43:41.499Z,62.80
2019-05-18T11:46:20.333Z,63.10
2019-05-18T11:48:49.910Z,63.20
2019-05-18T11:51:19.265Z,61.20
2019-05-18T11:53:57.956Z,60.70
2019-05-18T11:56:20.323Z,59.80
2019-05-18T11:58:50.859Z,60.10
2019-05-18T12:01:21.154Z,59.80
2019-05-18T12:03:50.346Z,59.80
2019-05-18T12:06:19.914Z,59.10
2019-05-18T12:08:49.086Z,59.90
2019-05-18T12:11:18.970Z,58.90
2019-05-18T12:13:48.200Z,60.00
2019-05-18T12:16:18.780Z,58.00
2019-05-18T12:18:48.225Z,57.40
2019-05-18T12:21:17.807Z,55.60
2019-05-18T12:23:47.278Z,55.20
2019-05-18T12:26:17.599Z,56.90
2019-05-18T12:28:46.773Z,53.80
2019-05-18T12:31:17.791Z,53.50
2019-05-18T12:33:47.078Z,55.70
2019-05-18T12:36:16.209Z,56.80
2019-05-18T12:38:45.425Z,56.70
2019-05-18T12:41:14.762Z,58.00
2019-05-18T12:43:43.897Z,59.10
2019-05-18T12:46:13.032Z,57.00
2019-05-18T12:48:42.190Z,55.60
2019-05-18T12:51:11.646Z,55.30
2019-05-18T12:53:42.585Z,55.80
2019-05-18T12:56:11.787Z,56.80
2019-05-18T12:58:41.054Z,56.80
2019-05-18T13:01:10.150Z,54.50
2019-05-18T13:03:41.650Z,55.20
2019-05-18T13:06:11.421Z,56.10
2019-05-18T13:08:40.510Z,56.80
2019-05-18T13:11:09.657Z,57.80
2019-05-18T13:13:38.786Z,59.20
2019-05-18T13:16:07.933Z,55.10
2019-05-18T13:18:38.339Z,54.60
2019-05-18T13:21:09.912Z,54.30
2019-05-18T13:23:39.413Z,53.50
2019-05-18T13:26:08.560Z,53.40
2019-05-18T13:28:37.742Z,52.90
2019-05-18T13:31:06.870Z,51.40
2019-05-18T13:33:36.037Z,51.10
2019-05-18T13:36:05.171Z,50.50
2019-05-18T13:38:34.360Z,51.00
2019-05-18T13:41:04.713Z,50.50
2019-05-18T13:43:33.882Z,50.50
2019-05-18T13:46:03.002Z,51.30
2019-05-18T13:48:32.202Z,50.70
2019-05-18T13:51:01.343Z,51.90
2019-05-18T13:53:30.566Z,51.70
2019-05-18T13:56:00.634Z,51.90
2019-05-18T13:58:29.777Z,51.20
2019-05-18T14:00:58.926Z,50.30
2019-05-18T14:03:29.787Z,48.20
2019-05-18T14:05:58.939Z,48.70
2019-05-18T14:08:28.154Z,47.70
2019-05-18T14:11:29.151Z,47.30
2019-05-18T14:14:09.857Z,47.20
2019-05-18T14:16:40.951Z,49.00
2019-05-18T14:19:10.935Z,47.80
2019-05-18T14:21:40.227Z,48.20
2019-05-18T14:24:09.362Z,48.30
2019-05-18T14:26:38.516Z,47.00
2019-05-18T14:29:08.042Z,45.40
2019-05-18T14:31:38.216Z,47.20
2019-05-18T14:34:07.997Z,46.50
2019-05-18T14:36:40.628Z,46.50
2019-05-18T14:39:09.530Z,46.40
2019-05-18T14:41:42.193Z,46.40
2019-05-18T14:44:09.639Z,48.20
2019-05-18T14:46:40.478Z,46.90
2019-05-18T14:49:09.659Z,46.00
2019-05-18T14:51:38.787Z,46.70
2019-05-18T14:54:07.889Z,46.70
2019-05-18T14:56:37.158Z,46.80
2019-05-18T14:59:06.296Z,46.40
2019-05-18T15:01:35.471Z,46.80
2019-05-18T15:04:04.619Z,47.60
2019-05-18T15:06:33.722Z,47.50
2019-05-18T15:09:02.907Z,47.00
2019-05-18T15:11:32.378Z,46.50
2019-05-18T15:14:01.489Z,47.30
2019-05-18T15:16:30.711Z,47.20
2019-05-18T15:18:59.940Z,46.60
2019-05-18T15:21:29.194Z,46.10
2019-05-18T15:23:58.377Z,46.60
2019-05-18T15:26:27.922Z,47.40
2019-05-18T15:28:58.191Z,47.90
2019-05-18T15:31:27.385Z,48.50
2019-05-18T15:33:56.597Z,47.80
2019-05-18T15:36:25.733Z,46.40
2019-05-18T15:38:54.866Z,46.80
2019-05-18T15:41:27.001Z,48.60
2019-05-18T15:43:56.150Z,47.80
2019-05-18T15:46:25.337Z,48.20
2019-05-18T15:49:01.412Z,50.50
2019-05-18T15:51:30.656Z,49.60
2019-05-18T15:53:59.823Z,50.60
2019-05-18T15:56:29.021Z,50.10
2019-05-18T15:58:58.244Z,49.60
2019-05-18T16:01:27.402Z,49.20
2019-05-18T16:03:56.497Z,49.60
2019-05-18T16:06:25.605Z,49.70
2019-05-18T16:08:54.685Z,50.00
2019-05-18T16:11:23.834Z,50.10
2019-05-18T16:13:52.926Z,49.90
2019-05-18T16:16:22.082Z,50.80
2019-05-18T16:18:51.408Z,49.10
2019-05-18T16:21:21.668Z,49.30
2019-05-18T16:23:53.138Z,49.50
2019-05-18T16:26:22.425Z,49.40
2019-05-18T16:28:51.590Z,50.10
2019-05-18T16:31:20.716Z,48.80
2019-05-18T16:33:49.974Z,49.70
2019-05-18T16:36:19.079Z,49.00
2019-05-18T16:38:48.217Z,49.80
2019-05-18T16:41:17.322Z,50.10
2019-05-18T16:43:46.505Z,50.00
2019-05-18T16:46:19.222Z,51.50
2019-05-18T16:48:55.848Z,50.10
2019-05-18T16:51:25.507Z,49.60
2019-05-18T16:53:56.590Z,50.40
2019-05-18T16:56:34.829Z,51.00
2019-05-18T16:58:56.534Z,51.00
2019-05-18T17:01:25.686Z,50.70
2019-05-18T17:03:56.944Z,50.90
2019-05-18T17:06:26.037Z,50.90
2019-05-18T17:08:55.166Z,51.80
2019-05-18T17:11:24.975Z,52.50
2019-05-18T17:13:55.274Z,51.90
2019-05-18T17:16:24.407Z,52.80
2019-05-18T17:18:54.742Z,52.70
2019-05-18T17:21:23.894Z,52.30
2019-05-18T17:23:53.672Z,52.80
2019-05-18T17:26:22.979Z,52.60
2019-05-18T17:28:52.127Z,52.60
2019-05-18T17:31:21.286Z,52.50
2019-05-18T17:33:50.600Z,52.60
2019-05-18T17:36:19.853Z,52.90
2019-05-18T17:38:48.998Z,52.70
2019-05-18T17:41:18.171Z,53.30
2019-05-18T17:43:47.285Z,52.60
2019-05-18T17:46:16.391Z,52.70
2019-05-18T17:48:45.630Z,52.80
2019-05-18T17:51:14.731Z,54.10
2019-05-18T17:53:43.826Z,53.30
2019-05-18T17:56:12.946Z,53.50
2019-05-18T17:58:42.064Z,54.10
2019-05-18T18:01:11.178Z,54.10
2019-05-18T18:03:40.330Z,54.40
2019-05-18T18:06:09.610Z,54.90
2019-05-18T18:08:38.771Z,56.00
2019-05-18T18:11:07.929Z,56.20
2019-05-18T18:13:53.585Z,56.80
2019-05-18T18:16:24.062Z,56.70
2019-05-18T18:18:54.300Z,57.80
2019-05-18T18:21:24.322Z,57.60
2019-05-18T18:23:55.481Z,57.90
2019-05-18T18:26:25.463Z,57.70
2019-05-18T18:28:54.890Z,58.60
2019-05-18T18:31:24.061Z,58.60
2019-05-18T18:33:53.215Z,58.80
2019-05-18T18:36:22.431Z,58.60
2019-05-18T18:38:51.575Z,59.10
2019-05-18T18:41:21.441Z,59.40
2019-05-18T18:43:53.551Z,59.90
2019-05-18T18:46:22.770Z,60.10
2019-05-18T18:48:53.503Z,61.00
2019-05-18T18:51:27.262Z,60.70
2019-05-18T18:53:57.023Z,61.30
2019-05-18T18:56:30.248Z,62.10
2019-05-18T18:58:59.501Z,62.60
2019-05-18T19:01:30.843Z,62.90
2019-05-18T19:03:59.996Z,63.40
2019-05-18T19:06:29.748Z,64.20
2019-05-18T19:08:59.619Z,64.50
2019-05-18T19:11:47.932Z,65.30
2019-05-18T19:14:20.427Z,65.80
2019-05-18T19:16:54.245Z,66.50
2019-05-18T19:19:23.846Z,67.20
2019-05-18T19:21:53.033Z,67.90
2019-05-18T19:24:22.241Z,68.60
2019-05-18T19:26:51.492Z,69.10
2019-05-18T19:29:20.638Z,69.90
2019-05-18T19:31:49.780Z,70.50
2019-05-18T19:34:18.924Z,71.10
2019-05-18T19:36:48.067Z,71.70
2019-05-18T19:39:17.259Z,72.10
2019-05-18T19:41:47.283Z,72.60
2019-05-18T19:44:18.015Z,73.00
2019-05-18T19:46:47.886Z,73.50
2019-05-18T19:49:17.257Z,74.50
2019-05-18T19:51:47.086Z,74.60
2019-05-18T19:54:16.194Z,75.30
2019-05-18T19:56:45.378Z,76.10
2019-05-18T19:59:14.616Z,77.10
2019-05-18T20:01:44.155Z,78.60
2019-05-18T20:04:13.788Z,80.20
2019-05-18T20:06:42.992Z,81.80
2019-05-18T20:09:12.530Z,84.20
2019-05-18T20:11:41.727Z,88.00
2019-05-18T20:14:10.833Z,91.70
2019-05-18T20:16:42.047Z,93.60
2019-05-18T20:19:11.239Z,95.70
2019-05-18T20:21:40.449Z,97.70
2019-05-18T20:24:11.696Z,99.90
2019-05-18T20:26:41.255Z,99.90
2019-05-18T20:29:10.586Z,99.90
2019-05-18T20:31:39.722Z,99.90
2019-05-18T20:34:08.830Z,99.90
2019-05-18T20:36:40.112Z,99.90
2019-05-18T20:39:09.850Z,99.90
2019-05-18T20:41:39.411Z,99.90
2019-05-18T20:44:09.700Z,99.90
2019-05-18T20:46:38.911Z,99.90
2019-05-18T20:49:11.549Z,99.90
2019-05-18T20:51:40.689Z,99.90
2019-05-18T20:54:14.190Z,99.90
2019-05-18T20:56:44.133Z,99.90
2019-05-18T20:59:14.860Z,99.90
2019-05-18T21:01:44.846Z,99.90
2019-05-18T21:04:14.012Z,99.90
2019-05-18T21:06:45.522Z,99.90
2019-05-18T21:09:14.962Z,99.90
2019-05-18T21:11:44.720Z,99.90
2019-05-18T21:14:16.257Z,99.90
2019-05-18T21:16:47.751Z,99.90
2019-05-18T21:19:18.156Z,99.90
2019-05-18T21:21:47.356Z,99.90
2019-05-18T21:24:17.421Z,99.90
2019-05-18T21:26:48.123Z,99.90
2019-05-18T21:29:17.627Z,99.90
2019-05-18T21:31:49.215Z,99.90
2019-05-18T21:34:19.022Z,99.90
2019-05-18T21:36:48.804Z,99.90
2019-05-18T21:39:18.007Z,99.90
2019-05-18T21:41:47.510Z,99.90
2019-05-18T21:44:16.659Z,99.90
2019-05-18T21:46:54.720Z,99.90
2019-05-18T21:49:24.183Z,99.90
2019-05-18T21:51:54.275Z,99.90
2019-05-18T21:54:24.560Z,99.90
2019-05-18T21:56:54.085Z,99.90
2019-05-18T21:59:24.104Z,99.90
2019-05-18T22:01:53.380Z,99.90
2019-05-18T22:04:23.582Z,99.90
2019-05-18T22:06:53.964Z,99.90
2019-05-18T22:09:23.102Z,99.90
2019-05-18T22:11:52.362Z,99.90
2019-05-18T22:14:21.530Z,99.90
2019-05-18T22:16:52.618Z,99.90
2019-05-18T22:19:23.727Z,99.90
2019-05-18T22:21:52.871Z,99.90
2019-05-18T22:24:22.139Z,99.90
2019-05-18T22:26:51.458Z,99.90
2019-05-18T22:29:21.577Z,99.90
2019-05-18T22:31:53.027Z,99.90
2019-05-18T22:34:22.211Z,99.90
2019-05-18T22:36:51.423Z,99.90
2019-05-18T22:39:29.773Z,99.90
2019-05-18T22:42:04.847Z,99.90
2019-05-18T22:44:34.931Z,99.90
2019-05-18T22:47:09.009Z,99.90
2019-05-18T22:49:43.870Z,99.90
2019-05-18T22:52:16.706Z,99.90
2019-05-18T22:54:47.576Z,99.90
2019-05-18T22:57:20.565Z,99.90
2019-05-18T22:59:52.488Z,99.90
2019-05-18T23:02:25.326Z,99.90
2019-05-18T23:04:57.766Z,99.90
2019-05-18T23:07:30.851Z,99.90
2019-05-18T23:10:05.590Z,99.90
2019-05-18T23:12:42.781Z,99.90
2019-05-18T23:15:18.461Z,99.90
2019-05-18T23:17:49.201Z,99.90
2019-05-18T23:20:18.818Z,99.90
2019-05-18T23:22:48.028Z,99.90
2019-05-18T23:25:17.287Z,99.90
2019-05-18T23:27:46.434Z,99.90
2019-05-18T23:30:15.593Z,99.90
2019-05-18T23:32:44.735Z,99.90
2019-05-18T23:35:13.886Z,99.90
2019-05-18T23:37:43.103Z,99.90
2019-05-18T23:40:12.610Z,99.90
2019-05-18T23:42:41.777Z,99.90
2019-05-18T23:45:11.023Z,99.90
2019-05-18T23:47:42.613Z,99.90
2019-05-18T23:50:12.162Z,99.90
2019-05-18T23:52:41.295Z,99.90
2019-05-18T23:55:10.550Z,99.90
2019-05-18T23:57:40.471Z,99.90
